sensor_id;sensor_type;location;lat;lon;timestamp;temperature;humidity
40702;DHT22;26387;50.114;8.662;2022-08-21T00:01:30;22.60;57.30
40702;DHT22;26387;50.114;8.662;2022-08-21T00:03:56;22.60;57.60
40702;DHT22;26387;50.114;8.662;2022-08-21T00:06:22;22.60;57.60
40702;DHT22;26387;50.114;8.662;2022-08-21T00:08:50;22.50;57.80
40702;DHT22;26387;50.114;8.662;2022-08-21T00:11:15;22.50;58.00
40702;DHT22;26387;50.114;8.662;2022-08-21T00:13:41;22.50;58.00
40702;DHT22;26387;50.114;8.662;2022-08-21T00:16:07;22.50;58.10
40702;DHT22;26387;50.114;8.662;2022-08-21T00:18:32;22.40;58.30
40702;DHT22;26387;50.114;8.662;2022-08-21T00:20:58;22.40;58.40
40702;DHT22;26387;50.114;8.662;2022-08-21T00:23:24;22.40;58.60
40702;DHT22;26387;50.114;8.662;2022-08-21T00:25:49;22.30;58.80
40702;DHT22;26387;50.114;8.662;2022-08-21T00:28:15;22.20;59.00
40702;DHT22;26387;50.114;8.662;2022-08-21T00:30:42;22.20;59.40
40702;DHT22;26387;50.114;8.662;2022-08-21T00:33:09;22.20;59.40
40702;DHT22;26387;50.114;8.662;2022-08-21T00:35:37;22.20;59.40
40702;DHT22;26387;50.114;8.662;2022-08-21T00:38:06;22.10;59.30
40702;DHT22;26387;50.114;8.662;2022-08-21T00:40:41;22.20;59.40
40702;DHT22;26387;50.114;8.662;2022-08-21T00:43:11;22.20;59.50
40702;DHT22;26387;50.114;8.662;2022-08-21T00:45:37;22.20;59.60
40702;DHT22;26387;50.114;8.662;2022-08-21T00:48:03;22.20;59.70
40702;DHT22;26387;50.114;8.662;2022-08-21T00:50:32;22.20;59.70
40702;DHT22;26387;50.114;8.662;2022-08-21T00:52:59;22.10;60.20
40702;DHT22;26387;50.114;8.662;2022-08-21T00:55:26;22.00;60.70
40702;DHT22;26387;50.114;8.662;2022-08-21T00:57:56;22.00;60.80
40702;DHT22;26387;50.114;8.662;2022-08-21T01:00:26;22.00;60.90
40702;DHT22;26387;50.114;8.662;2022-08-21T01:02:59;22.10;60.80
40702;DHT22;26387;50.114;8.662;2022-08-21T01:05:25;22.00;60.90
40702;DHT22;26387;50.114;8.662;2022-08-21T01:07:52;22.10;60.80
40702;DHT22;26387;50.114;8.662;2022-08-21T01:10:21;22.10;60.90
40702;DHT22;26387;50.114;8.662;2022-08-21T01:12:47;22.10;61.20
40702;DHT22;26387;50.114;8.662;2022-08-21T01:15:14;22.10;61.30
40702;DHT22;26387;50.114;8.662;2022-08-21T01:17:41;22.10;61.70
40702;DHT22;26387;50.114;8.662;2022-08-21T01:20:10;22.10;61.90
40702;DHT22;26387;50.114;8.662;2022-08-21T01:22:36;22.00;62.40
40702;DHT22;26387;50.114;8.662;2022-08-21T01:25:04;21.90;62.50
40702;DHT22;26387;50.114;8.662;2022-08-21T01:27:30;21.90;62.70
40702;DHT22;26387;50.114;8.662;2022-08-21T01:29:59;21.90;62.80
40702;DHT22;26387;50.114;8.662;2022-08-21T01:32:27;21.80;63.00
40702;DHT22;26387;50.114;8.662;2022-08-21T01:34:53;21.80;63.10
40702;DHT22;26387;50.114;8.662;2022-08-21T01:37:21;21.80;62.90
40702;DHT22;26387;50.114;8.662;2022-08-21T01:39:47;21.90;62.90
40702;DHT22;26387;50.114;8.662;2022-08-21T01:42:13;21.90;63.00
40702;DHT22;26387;50.114;8.662;2022-08-21T01:44:39;21.90;63.10
40702;DHT22;26387;50.114;8.662;2022-08-21T01:47:07;22.00;63.30
40702;DHT22;26387;50.114;8.662;2022-08-21T01:49:34;21.90;63.50
40702;DHT22;26387;50.114;8.662;2022-08-21T01:52:00;21.90;63.60
40702;DHT22;26387;50.114;8.662;2022-08-21T01:54:25;21.90;63.80
40702;DHT22;26387;50.114;8.662;2022-08-21T01:56:53;21.90;63.90
40702;DHT22;26387;50.114;8.662;2022-08-21T01:59:19;21.80;64.00
40702;DHT22;26387;50.114;8.662;2022-08-21T02:01:45;21.80;64.10
40702;DHT22;26387;50.114;8.662;2022-08-21T02:04:11;21.80;64.30
40702;DHT22;26387;50.114;8.662;2022-08-21T02:06:38;21.80;64.40
40702;DHT22;26387;50.114;8.662;2022-08-21T02:09:05;21.80;64.50
40702;DHT22;26387;50.114;8.662;2022-08-21T02:11:33;21.80;64.90
40702;DHT22;26387;50.114;8.662;2022-08-21T02:13:58;21.80;65.20
40702;DHT22;26387;50.114;8.662;2022-08-21T02:16:24;21.70;65.40
40702;DHT22;26387;50.114;8.662;2022-08-21T02:18:50;21.70;65.60
40702;DHT22;26387;50.114;8.662;2022-08-21T02:21:15;21.70;65.40
40702;DHT22;26387;50.114;8.662;2022-08-21T02:23:41;21.70;64.50
40702;DHT22;26387;50.114;8.662;2022-08-21T02:26:07;21.60;64.20
40702;DHT22;26387;50.114;8.662;2022-08-21T02:28:34;21.60;64.00
40702;DHT22;26387;50.114;8.662;2022-08-21T02:31:00;21.60;63.90
40702;DHT22;26387;50.114;8.662;2022-08-21T02:33:27;21.60;63.50
40702;DHT22;26387;50.114;8.662;2022-08-21T02:35:53;21.60;63.40
40702;DHT22;26387;50.114;8.662;2022-08-21T02:38:23;21.60;63.30
40702;DHT22;26387;50.114;8.662;2022-08-21T02:40:51;21.60;63.10
40702;DHT22;26387;50.114;8.662;2022-08-21T02:43:19;21.60;63.20
40702;DHT22;26387;50.114;8.662;2022-08-21T02:45:45;21.60;63.30
40702;DHT22;26387;50.114;8.662;2022-08-21T02:48:14;21.60;63.20
40702;DHT22;26387;50.114;8.662;2022-08-21T02:50:51;21.50;63.40
40702;DHT22;26387;50.114;8.662;2022-08-21T02:53:17;21.50;64.20
40702;DHT22;26387;50.114;8.662;2022-08-21T02:55:44;21.50;64.20
40702;DHT22;26387;50.114;8.662;2022-08-21T02:58:10;21.50;64.40
40702;DHT22;26387;50.114;8.662;2022-08-21T03:00:37;21.40;64.70
40702;DHT22;26387;50.114;8.662;2022-08-21T03:03:03;21.40;65.10
40702;DHT22;26387;50.114;8.662;2022-08-21T03:05:30;21.30;65.30
40702;DHT22;26387;50.114;8.662;2022-08-21T03:07:57;21.30;65.20
40702;DHT22;26387;50.114;8.662;2022-08-21T03:10:24;21.20;65.10
40702;DHT22;26387;50.114;8.662;2022-08-21T03:12:50;21.30;65.10
40702;DHT22;26387;50.114;8.662;2022-08-21T03:15:18;21.30;64.90
40702;DHT22;26387;50.114;8.662;2022-08-21T03:17:45;21.20;65.10
40702;DHT22;26387;50.114;8.662;2022-08-21T03:20:13;21.20;65.20
40702;DHT22;26387;50.114;8.662;2022-08-21T03:22:40;21.20;65.50
40702;DHT22;26387;50.114;8.662;2022-08-21T03:25:06;21.20;65.70
40702;DHT22;26387;50.114;8.662;2022-08-21T03:27:32;21.10;66.00
40702;DHT22;26387;50.114;8.662;2022-08-21T03:29:59;21.10;66.20
40702;DHT22;26387;50.114;8.662;2022-08-21T03:32:24;21.00;66.20
40702;DHT22;26387;50.114;8.662;2022-08-21T03:34:50;21.00;66.40
40702;DHT22;26387;50.114;8.662;2022-08-21T03:37:16;21.00;66.30
40702;DHT22;26387;50.114;8.662;2022-08-21T03:39:45;20.90;66.60
40702;DHT22;26387;50.114;8.662;2022-08-21T03:42:11;20.80;66.80
40702;DHT22;26387;50.114;8.662;2022-08-21T03:44:37;20.70;66.90
40702;DHT22;26387;50.114;8.662;2022-08-21T03:47:05;20.70;67.10
40702;DHT22;26387;50.114;8.662;2022-08-21T03:49:31;20.70;67.40
40702;DHT22;26387;50.114;8.662;2022-08-21T03:51:56;20.60;67.40
40702;DHT22;26387;50.114;8.662;2022-08-21T03:54:22;20.50;67.50
40702;DHT22;26387;50.114;8.662;2022-08-21T03:56:47;20.50;67.80
40702;DHT22;26387;50.114;8.662;2022-08-21T03:59:13;20.50;67.70
40702;DHT22;26387;50.114;8.662;2022-08-21T04:01:39;20.50;67.80
40702;DHT22;26387;50.114;8.662;2022-08-21T04:04:05;20.50;67.90
40702;DHT22;26387;50.114;8.662;2022-08-21T04:06:32;20.40;68.10
40702;DHT22;26387;50.114;8.662;2022-08-21T04:08:58;20.40;68.30
40702;DHT22;26387;50.114;8.662;2022-08-21T04:11:24;20.40;68.50
40702;DHT22;26387;50.114;8.662;2022-08-21T04:13:50;20.40;68.70
40702;DHT22;26387;50.114;8.662;2022-08-21T04:16:15;20.30;68.90
40702;DHT22;26387;50.114;8.662;2022-08-21T04:18:41;20.30;69.00
40702;DHT22;26387;50.114;8.662;2022-08-21T04:21:09;20.30;69.30
40702;DHT22;26387;50.114;8.662;2022-08-21T04:23:35;20.30;69.50
40702;DHT22;26387;50.114;8.662;2022-08-21T04:26:01;20.30;69.70
40702;DHT22;26387;50.114;8.662;2022-08-21T04:28:27;20.20;69.70
40702;DHT22;26387;50.114;8.662;2022-08-21T04:30:56;20.20;69.90
40702;DHT22;26387;50.114;8.662;2022-08-21T04:33:22;20.20;70.20
40702;DHT22;26387;50.114;8.662;2022-08-21T04:35:49;20.20;70.30
40702;DHT22;26387;50.114;8.662;2022-08-21T04:38:14;20.20;70.40
40702;DHT22;26387;50.114;8.662;2022-08-21T04:40:40;20.10;70.40
40702;DHT22;26387;50.114;8.662;2022-08-21T04:43:08;20.10;70.50
40702;DHT22;26387;50.114;8.662;2022-08-21T04:45:45;20.10;70.80
40702;DHT22;26387;50.114;8.662;2022-08-21T04:48:15;20.10;71.00
40702;DHT22;26387;50.114;8.662;2022-08-21T04:51:05;20.10;70.90
40702;DHT22;26387;50.114;8.662;2022-08-21T04:53:45;20.10;70.90
40702;DHT22;26387;50.114;8.662;2022-08-21T04:56:22;20.10;70.90
40702;DHT22;26387;50.114;8.662;2022-08-21T04:58:50;20.00;71.10
40702;DHT22;26387;50.114;8.662;2022-08-21T05:01:20;20.00;71.10
40702;DHT22;26387;50.114;8.662;2022-08-21T05:03:48;20.00;71.30
40702;DHT22;26387;50.114;8.662;2022-08-21T05:06:15;20.00;71.20
40702;DHT22;26387;50.114;8.662;2022-08-21T05:08:45;20.00;71.30
40702;DHT22;26387;50.114;8.662;2022-08-21T05:11:12;20.00;71.40
40702;DHT22;26387;50.114;8.662;2022-08-21T05:13:38;20.00;71.30
40702;DHT22;26387;50.114;8.662;2022-08-21T05:16:06;20.10;71.20
40702;DHT22;26387;50.114;8.662;2022-08-21T05:18:31;20.00;71.20
40702;DHT22;26387;50.114;8.662;2022-08-21T05:20:57;19.90;71.30
40702;DHT22;26387;50.114;8.662;2022-08-21T05:23:22;20.00;71.50
